Time;durP1;ratioP1;P1;durP2;ratioP2;P2;SDS_P1;SDS_P2;PMS_P1;PMS_P2;Temp;Humidity;BMP_temperature;BMP_pressure;BME280_temperature;BME280_humidity;BME280_pressure;Samples;Min_cycle;Max_cycle;Signal;HPM_P1;HPM_P2
2023/08/22 00:02:01;;;;;;;6.37;5.87;;;27.50;85.20;;;;;;4987151;28;20433;-70
2023/08/22 00:04:30;;;;;;;6.73;6.23;;;27.40;85.20;;;;;;4986859;28;20659;-70
2023/08/22 00:06:56;;;;;;;6.13;5.63;;;27.40;85.30;;;;;;4969424;28;20440;-70
2023/08/22 00:09:27;;;;;;;6.20;5.60;;;27.40;85.20;;;;;;4952698;28;20444;-70
2023/08/22 00:11:53;;;;;;;5.63;5.13;;;27.40;85.30;;;;;;4962263;28;20438;-71
2023/08/22 00:14:21;;;;;;;6.60;5.20;;;27.40;85.30;;;;;;4967344;28;21025;-70
2023/08/22 00:16:47;;;;;;;5.77;5.20;;;27.40;85.30;;;;;;4949470;28;21210;-70
2023/08/22 00:19:13;;;;;;;6.30;5.37;;;27.40;85.40;;;;;;4963249;28;20425;-70
2023/08/22 00:21:39;;;;;;;5.40;5.00;;;27.30;85.30;;;;;;4986409;28;20871;-70
2023/08/22 00:24:08;;;;;;;6.47;5.13;;;27.30;85.30;;;;;;4984535;28;20982;-71
2023/08/22 00:26:36;;;;;;;5.80;5.30;;;27.30;85.30;;;;;;4967176;28;20454;-70
2023/08/22 00:29:02;;;;;;;6.50;5.87;;;27.30;85.30;;;;;;4966396;28;20495;-70
2023/08/22 00:31:33;;;;;;;5.97;5.47;;;27.30;85.30;;;;;;4957544;28;20465;-71
2023/08/22 00:34:03;;;;;;;5.83;5.33;;;27.20;85.30;;;;;;4949243;28;20521;-70
2023/08/22 00:36:31;;;;;;;5.60;5.17;;;27.20;85.30;;;;;;4933658;28;20497;-71
2023/08/22 00:38:57;;;;;;;5.97;5.40;;;27.20;85.40;;;;;;4960292;28;20938;-70
2023/08/22 00:41:26;;;;;;;6.43;5.83;;;27.20;85.30;;;;;;4968035;28;20457;-70
2023/08/22 00:43:52;;;;;;;5.73;5.33;;;27.20;85.20;;;;;;4937771;28;21165;-70
2023/08/22 00:46:22;;;;;;;5.90;5.40;;;27.10;85.30;;;;;;4949109;28;20421;-70
2023/08/22 00:48:48;;;;;;;6.93;5.20;;;27.10;85.40;;;;;;4933493;28;20433;-70
2023/08/22 00:51:16;;;;;;;6.13;5.67;;;27.10;85.90;;;;;;4948651;28;20445;-70
2023/08/22 00:53:44;;;;;;;8.17;5.40;;;27.10;85.30;;;;;;4946516;28;21299;-70
2023/08/22 00:56:10;;;;;;;6.53;5.10;;;27.10;85.30;;;;;;4968269;28;20429;-70
2023/08/22 00:58:39;;;;;;;5.20;4.80;;;27.10;85.40;;;;;;4960731;28;20525;-70
2023/08/22 01:01:06;;;;;;;6.70;5.50;;;27.10;85.40;;;;;;4933947;28;20558;-70
2023/08/22 01:03:34;;;;;;;6.07;5.40;;;27.00;85.30;;;;;;4948967;28;20986;-71
2023/08/22 01:06:14;;;;;;;5.77;5.27;;;27.00;85.30;;;;;;4949343;28;20461;-70
2023/08/22 01:08:44;;;;;;;7.40;5.20;;;27.00;85.30;;;;;;4966778;28;20458;-70
2023/08/22 01:11:22;;;;;;;5.60;5.03;;;27.00;85.30;;;;;;4937861;28;20866;-70
2023/08/22 01:13:54;;;;;;;5.43;4.93;;;27.00;85.30;;;;;;4985826;28;20465;-70
2023/08/22 01:16:25;;;;;;;5.03;4.67;;;26.90;85.30;;;;;;4968890;28;20499;-70
2023/08/22 01:18:52;;;;;;;5.40;4.87;;;26.90;86.10;;;;;;4952214;28;20547;-71
2023/08/22 01:21:23;;;;;;;5.37;4.87;;;26.90;85.30;;;;;;4968204;28;20437;-70
2023/08/22 01:23:49;;;;;;;5.43;4.80;;;26.90;85.30;;;;;;4932923;28;20457;-70
2023/08/22 01:26:18;;;;;;;5.20;4.80;;;26.90;85.30;;;;;;4948973;28;20493;-70
2023/08/22 01:28:56;;;;;;;5.00;4.60;;;26.90;85.40;;;;;;4948947;28;20446;-70
2023/08/22 01:31:33;;;;;;;5.37;4.87;;;26.80;85.30;;;;;;4965894;28;20465;-70
2023/08/22 01:34:05;;;;;;;5.70;5.30;;;26.80;85.30;;;;;;4948321;28;20437;-70
2023/08/22 01:36:36;;;;;;;5.20;4.80;;;26.80;85.40;;;;;;4948500;28;20429;-70
2023/08/22 01:39:07;;;;;;;6.73;5.47;;;26.80;85.40;;;;;;4947745;28;20422;-70
2023/08/22 01:41:34;;;;;;;5.50;5.03;;;26.70;85.30;;;;;;4956015;28;21009;-70
2023/08/22 01:44:03;;;;;;;5.70;5.30;;;26.70;85.30;;;;;;4950741;28;20539;-70
2023/08/22 01:46:30;;;;;;;5.57;5.10;;;26.70;85.30;;;;;;4966186;28;21595;-70
2023/08/22 01:48:59;;;;;;;6.20;4.90;;;26.70;85.30;;;;;;4956073;28;20430;-70
2023/08/22 01:51:25;;;;;;;5.27;4.87;;;26.70;85.40;;;;;;4947594;28;20422;-70
2023/08/22 01:53:53;;;;;;;5.00;4.60;;;26.70;85.40;;;;;;4947878;28;21024;-70
2023/08/22 01:56:24;;;;;;;6.70;5.07;;;26.70;85.30;;;;;;4947983;28;20866;-70
2023/08/22 01:58:51;;;;;;;5.50;4.97;;;26.70;85.40;;;;;;4932221;28;21038;-70
2023/08/22 02:01:20;;;;;;;6.30;4.73;;;26.60;85.30;;;;;;4965166;28;20477;-70
2023/08/22 02:03:46;;;;;;;5.53;5.13;;;26.60;85.30;;;;;;4947920;28;20457;-70
2023/08/22 02:06:14;;;;;;;5.70;4.87;;;26.60;85.40;;;;;;4947845;28;20474;-70
2023/08/22 02:08:40;;;;;;;5.37;4.97;;;26.60;85.40;;;;;;4947704;28;20449;-70
2023/08/22 02:11:07;;;;;;;5.50;5.03;;;26.60;85.40;;;;;;4951095;28;21041;-70
2023/08/22 02:13:33;;;;;;;6.87;6.03;;;26.60;85.40;;;;;;4966970;28;20459;-70
2023/08/22 02:16:00;;;;;;;5.40;4.90;;;26.50;85.30;;;;;;4965336;28;20421;-70
2023/08/22 02:18:27;;;;;;;11.27;4.63;;;26.50;85.40;;;;;;4965544;28;20860;-70
2023/08/22 02:20:57;;;;;;;5.30;4.80;;;26.50;85.40;;;;;;4931705;28;20432;-71
2023/08/22 02:23:28;;;;;;;5.50;5.00;;;26.50;85.50;;;;;;4966726;28;20516;-70
2023/08/22 02:25:54;;;;;;;6.40;4.50;;;26.40;85.40;;;;;;4950343;28;20529;-70
2023/08/22 02:28:22;;;;;;;5.40;4.90;;;26.50;85.50;;;;;;4966850;28;20437;-71
2023/08/22 02:31:00;;;;;;;6.00;4.67;;;26.40;85.40;;;;;;4950302;28;20920;-70
2023/08/22 02:33:28;;;;;;;5.33;4.90;;;26.40;85.40;;;;;;4966223;28;20433;-70
2023/08/22 02:35:56;;;;;;;5.77;5.10;;;26.40;85.50;;;;;;4950391;28;20472;-70
2023/08/22 02:38:24;;;;;;;5.20;4.80;;;26.40;85.40;;;;;;4983973;28;20464;-70
2023/08/22 02:40:53;;;;;;;5.60;5.10;;;26.40;85.50;;;;;;4950221;28;20584;-70
2023/08/22 02:43:21;;;;;;;7.60;5.73;;;26.40;85.40;;;;;;4950529;28;21294;-70
2023/08/22 02:45:50;;;;;;;7.53;5.33;;;26.40;85.40;;;;;;4947192;28;20478;-70
2023/08/22 02:48:18;;;;;;;5.17;4.63;;;26.40;85.50;;;;;;4947484;28;20428;-70
2023/08/22 02:50:47;;;;;;;4.73;4.43;;;26.30;85.40;;;;;;4947589;28;20426;-70
2023/08/22 02:53:19;;;;;;;6.30;5.03;;;26.30;85.40;;;;;;4950743;28;20449;-70
2023/08/22 02:55:49;;;;;;;5.13;4.73;;;26.30;85.40;;;;;;4970426;28;20869;-70
2023/08/22 02:58:20;;;;;;;5.33;4.50;;;26.30;85.40;;;;;;4971221;28;20612;-70
2023/08/22 03:00:47;;;;;;;5.30;4.80;;;26.30;85.50;;;;;;4970423;28;21032;-70
2023/08/22 03:03:15;;;;;;;7.60;5.77;;;26.20;85.40;;;;;;4969864;28;20467;-70
2023/08/22 03:05:44;;;;;;;5.60;5.00;;;26.20;85.40;;;;;;4954429;28;21009;-70
2023/08/22 03:08:11;;;;;;;5.70;5.20;;;26.20;85.40;;;;;;4953790;28;20882;-70
2023/08/22 03:10:38;;;;;;;4.90;4.50;;;26.20;85.50;;;;;;4951248;28;21090;-70
2023/08/22 03:13:07;;;;;;;6.87;5.10;;;26.20;85.50;;;;;;4968865;28;21057;-70
2023/08/22 03:15:35;;;;;;;6.40;5.00;;;26.20;85.50;;;;;;4969338;28;20433;-70
2023/08/22 03:18:02;;;;;;;5.70;5.27;;;26.10;85.50;;;;;;4986348;28;21011;-70
2023/08/22 03:20:28;;;;;;;5.50;5.00;;;26.10;85.40;;;;;;4938106;28;20445;-70
2023/08/22 03:22:57;;;;;;;5.40;5.00;;;26.10;85.50;;;;;;4969696;28;20475;-70
2023/08/22 03:25:24;;;;;;;5.63;5.00;;;26.10;85.50;;;;;;4953318;28;20485;-70
2023/08/22 03:27:50;;;;;;;4.83;4.43;;;26.10;85.50;;;;;;4953961;28;20421;-70
2023/08/22 03:30:16;;;;;;;5.43;5.03;;;26.10;85.50;;;;;;4954095;28;20413;-70
2023/08/22 03:32:43;;;;;;;5.43;4.77;;;26.10;85.60;;;;;;4955406;28;20838;-70
2023/08/22 03:35:12;;;;;;;5.03;4.63;;;26.10;85.50;;;;;;4968319;28;20453;-70
2023/08/22 03:37:41;;;;;;;5.40;4.90;;;26.10;85.50;;;;;;4949620;28;20446;-70
2023/08/22 03:40:10;;;;;;;8.37;5.00;;;26.00;85.40;;;;;;4967550;28;21141;-70
2023/08/22 03:42:36;;;;;;;7.10;4.83;;;26.00;85.50;;;;;;4951972;28;20920;-70
2023/08/22 03:45:11;;;;;;;4.60;4.20;;;26.00;85.50;;;;;;4934740;28;20476;-70
2023/08/22 03:47:38;;;;;;;5.93;5.27;;;26.00;85.50;;;;;;4934488;28;20458;-71
2023/08/22 03:50:06;;;;;;;5.83;4.47;;;26.00;85.50;;;;;;4950243;28;20499;-70
2023/08/22 03:52:32;;;;;;;4.77;4.47;;;25.90;85.40;;;;;;4950152;28;20449;-70
2023/08/22 03:54:58;;;;;;;6.10;5.07;;;25.90;85.50;;;;;;4933926;28;20457;-70
2023/08/22 03:57:26;;;;;;;4.73;4.33;;;25.90;85.50;;;;;;4933955;28;20943;-70
2023/08/22 03:59:56;;;;;;;4.80;4.17;;;25.90;85.50;;;;;;4934465;28;20469;-70
2023/08/22 04:02:22;;;;;;;4.97;4.67;;;25.90;85.50;;;;;;4933806;28;20438;-70
2023/08/22 04:04:48;;;;;;;5.37;4.97;;;25.90;85.50;;;;;;4981982;23;21009;-74
2023/08/22 04:07:15;;;;;;;5.40;5.00;;;25.90;85.60;;;;;;4968804;28;20229;-73
2023/08/22 04:09:40;;;;;;;5.83;5.10;;;25.90;85.60;;;;;;4969501;28;20425;-74
2023/08/22 04:12:07;;;;;;;5.53;5.13;;;25.90;85.60;;;;;;4997049;28;20455;-74
2023/08/22 04:14:35;;;;;;;6.40;5.10;;;25.80;85.50;;;;;;4972975;28;20670;-74
2023/08/22 04:17:01;;;;;;;6.40;5.43;;;25.80;85.50;;;;;;4972611;28;20401;-74
2023/08/22 04:19:32;;;;;;;4.97;4.50;;;25.80;85.50;;;;;;4972594;28;20215;-74
2023/08/22 04:21:58;;;;;;;5.43;4.90;;;25.80;85.60;;;;;;4990272;28;20471;-77
2023/08/22 04:24:24;;;;;;;4.10;3.80;;;25.80;85.60;;;;;;4975084;28;20503;-78
2023/08/22 04:26:52;;;;;;;4.70;4.17;;;25.70;85.50;;;;;;5008286;28;20223;-77
2023/08/22 04:29:20;;;;;;;5.60;5.17;;;25.70;85.50;;;;;;4991605;28;20447;-77
2023/08/22 04:31:48;;;;;;;4.50;4.20;;;25.70;85.50;;;;;;4990906;28;20455;-78
2023/08/22 04:34:17;;;;;;;5.17;4.53;;;25.70;85.60;;;;;;4975269;28;20436;-78
2023/08/22 04:36:50;;;;;;;5.20;4.80;;;25.70;85.60;;;;;;4991548;28;20469;-78
2023/08/22 04:39:16;;;;;;;4.90;4.40;;;25.70;85.60;;;;;;4958264;28;20443;-78
2023/08/22 04:41:44;;;;;;;4.57;4.20;;;25.60;85.50;;;;;;4990958;28;20404;-77
2023/08/22 04:44:19;;;;;;;5.10;4.30;;;25.60;85.50;;;;;;4990344;28;20464;-78
2023/08/22 04:46:48;;;;;;;4.37;4.03;;;25.60;85.60;;;;;;4990741;28;20494;-77
2023/08/22 04:49:15;;;;;;;5.20;4.70;;;25.60;85.60;;;;;;4973855;28;20987;-78
2023/08/22 04:51:41;;;;;;;6.40;4.77;;;25.60;85.60;;;;;;4989751;28;20508;-78
2023/08/22 04:54:11;;;;;;;5.13;4.47;;;25.60;85.60;;;;;;4973867;28;20503;-78
2023/08/22 04:56:39;;;;;;;4.37;4.00;;;25.60;85.70;;;;;;5007937;28;20420;-78
2023/08/22 04:59:06;;;;;;;11.00;5.33;;;25.50;85.70;;;;;;4991321;28;20443;-77
2023/08/22 05:01:34;;;;;;;4.57;4.17;;;25.50;85.60;;;;;;5008300;28;20795;-77
2023/08/22 05:04:06;;;;;;;6.60;4.67;;;25.50;85.70;;;;;;4990621;28;20442;-78
2023/08/22 05:06:34;;;;;;;5.17;4.40;;;25.50;85.70;;;;;;4989758;28;20454;-78
2023/08/22 05:09:03;;;;;;;5.00;4.70;;;25.50;85.80;;;;;;4973531;28;20392;-77
2023/08/22 05:11:32;;;;;;;5.27;4.87;;;25.40;85.80;;;;;;4989137;28;20772;-78
2023/08/22 05:14:03;;;;;;;5.33;4.67;;;25.40;85.80;;;;;;4973075;28;20459;-75
2023/08/22 05:16:34;;;;;;;4.20;3.90;;;25.40;85.80;;;;;;4972659;28;20470;-76
2023/08/22 05:19:01;;;;;;;5.10;4.70;;;25.40;85.80;;;;;;4957380;28;21220;-77
2023/08/22 05:21:29;;;;;;;5.07;4.57;;;25.40;85.80;;;;;;4972984;28;20415;-77
2023/08/22 05:23:55;;;;;;;4.83;4.43;;;25.40;85.90;;;;;;4972115;28;20519;-77
2023/08/22 05:26:25;;;;;;;4.70;4.10;;;25.40;85.90;;;;;;4954661;28;21016;-77
2023/08/22 05:28:53;;;;;;;5.00;4.57;;;25.40;86.00;;;;;;4957393;28;20456;-76
2023/08/22 05:31:26;;;;;;;7.47;4.63;;;25.40;86.00;;;;;;4987217;28;20433;-76
2023/08/22 05:33:53;;;;;;;4.97;4.60;;;25.40;85.90;;;;;;4956087;28;20535;-78
2023/08/22 05:36:20;;;;;;;7.87;5.33;;;25.30;86.00;;;;;;4988223;28;20443;-78
2023/08/22 05:38:48;;;;;;;9.60;4.70;;;25.30;85.40;;;;;;4974075;28;20408;-78
2023/08/22 05:41:19;;;;;;;5.10;4.40;;;25.30;85.70;;;;;;4974618;28;20466;-78
2023/08/22 05:43:45;;;;;;;5.40;4.43;;;25.30;85.80;;;;;;4990101;28;20551;-79
2023/08/22 05:46:16;;;;;;;7.67;4.70;;;25.20;85.80;;;;;;4989774;28;20538;-78
2023/08/22 05:48:45;;;;;;;4.77;4.37;;;25.20;85.80;;;;;;4989936;28;21103;-77
2023/08/22 05:51:11;;;;;;;9.00;4.10;;;25.20;85.90;;;;;;5007164;28;20878;-77
2023/08/22 05:53:39;;;;;;;6.27;4.43;;;25.10;85.90;;;;;;4990905;28;20464;-78
2023/08/22 05:56:10;;;;;;;6.20;4.33;;;25.20;86.20;;;;;;4991386;28;20459;-78
2023/08/22 05:58:38;;;;;;;5.03;4.60;;;25.20;86.20;;;;;;4992102;28;20553;-78
2023/08/22 06:01:10;;;;;;;6.33;4.30;;;25.20;86.20;;;;;;5004464;28;20463;-77
2023/08/22 06:03:40;;;;;;;5.67;4.90;;;25.10;86.20;;;;;;5002541;28;21047;-77
2023/08/22 06:06:09;;;;;;;7.03;4.17;;;25.10;86.30;;;;;;4985371;28;20471;-78
2023/08/22 06:08:35;;;;;;;4.90;4.50;;;25.10;86.30;;;;;;5001366;28;20494;-77
2023/08/22 06:11:01;;;;;;;5.30;4.67;;;25.10;86.40;;;;;;5002180;28;20488;-76
2023/08/22 06:13:27;;;;;;;5.27;4.57;;;25.10;86.50;;;;;;4968796;28;20463;-77
2023/08/22 06:15:57;;;;;;;4.93;4.53;;;25.10;87.40;;;;;;4953104;28;20432;-77
2023/08/22 06:18:23;;;;;;;5.57;5.17;;;25.10;86.70;;;;;;4969379;28;20431;-77
2023/08/22 06:20:51;;;;;;;6.50;4.60;;;25.10;86.70;;;;;;4969082;28;21220;-77
2023/08/22 06:23:17;;;;;;;4.97;4.57;;;25.10;86.80;;;;;;4969129;28;20451;-76
2023/08/22 06:25:49;;;;;;;4.27;3.97;;;25.10;86.90;;;;;;4968799;28;21078;-76
2023/08/22 06:28:17;;;;;;;5.10;4.60;;;25.10;86.90;;;;;;4964184;28;20480;-77
2023/08/22 06:30:47;;;;;;;4.53;4.13;;;25.10;87.00;;;;;;4950012;28;20436;-77
2023/08/22 06:33:13;;;;;;;6.33;4.70;;;25.10;87.10;;;;;;4933391;28;20560;-76
2023/08/22 06:35:44;;;;;;;4.60;4.20;;;25.10;87.30;;;;;;4950343;28;20443;-78
2023/08/22 06:38:13;;;;;;;4.97;4.57;;;25.00;87.20;;;;;;4952572;28;20435;-78
2023/08/22 06:40:43;;;;;;;5.03;4.63;;;25.00;87.30;;;;;;4937420;28;20969;-78
2023/08/22 06:43:10;;;;;;;4.87;4.33;;;25.10;87.50;;;;;;4971317;28;20510;-78
2023/08/22 06:45:39;;;;;;;4.80;4.43;;;25.00;87.50;;;;;;4987344;28;20856;-78
2023/08/22 06:48:05;;;;;;;5.03;4.17;;;25.00;87.60;;;;;;4988049;28;20396;-78
2023/08/22 06:50:32;;;;;;;5.23;4.83;;;25.00;87.60;;;;;;4987829;28;20416;-78
2023/08/22 06:52:59;;;;;;;4.40;4.10;;;25.00;87.70;;;;;;4971290;28;20477;-78
2023/08/22 06:55:33;;;;;;;5.57;4.80;;;25.00;87.80;;;;;;4989809;28;20439;-78
2023/08/22 06:57:59;;;;;;;4.43;4.03;;;25.00;87.80;;;;;;5006590;28;20412;-78
2023/08/22 07:00:27;;;;;;;5.00;4.50;;;25.00;87.90;;;;;;4987982;28;20440;-78
2023/08/22 07:02:53;;;;;;;4.83;4.43;;;25.00;88.00;;;;;;5005670;28;20966;-78
2023/08/22 07:05:21;;;;;;;5.43;4.40;;;25.00;88.00;;;;;;4988530;28;20253;-78
2023/08/22 07:07:50;;;;;;;5.20;4.53;;;25.00;88.00;;;;;;4988741;28;20472;-78
2023/08/22 07:10:20;;;;;;;4.83;4.43;;;25.10;88.20;;;;;;4987871;28;20404;-77
2023/08/22 07:12:45;;;;;;;4.70;4.33;;;25.10;88.20;;;;;;4969387;28;20433;-78
2023/08/22 07:15:12;;;;;;;5.53;4.87;;;25.10;88.20;;;;;;4951531;28;20456;-78
2023/08/22 07:17:40;;;;;;;4.73;4.43;;;25.10;88.40;;;;;;4970052;28;20448;-79
2023/08/22 07:20:07;;;;;;;5.23;4.60;;;25.10;88.50;;;;;;4968638;28;20424;-77
2023/08/22 07:22:33;;;;;;;5.23;4.73;;;25.10;88.50;;;;;;4967883;28;20433;-78
2023/08/22 07:25:00;;;;;;;5.97;4.50;;;25.10;88.40;;;;;;4968026;28;20547;-78
2023/08/22 07:27:27;;;;;;;4.93;4.60;;;25.10;88.50;;;;;;4967639;28;21164;-79
2023/08/22 07:29:55;;;;;;;5.43;5.00;;;25.10;88.50;;;;;;4936382;28;20423;-78
2023/08/22 07:32:21;;;;;;;4.83;4.30;;;25.10;88.60;;;;;;4966944;28;20460;-79
2023/08/22 07:34:50;;;;;;;5.70;5.10;;;25.10;88.60;;;;;;4952061;28;20491;-79
2023/08/22 07:37:16;;;;;;;5.30;4.90;;;25.10;88.70;;;;;;4967154;28;20432;-78
2023/08/22 07:39:42;;;;;;;5.63;5.13;;;25.10;88.70;;;;;;4951462;28;20433;-78
2023/08/22 07:42:08;;;;;;;5.43;5.03;;;25.10;88.80;;;;;;4973053;28;20452;-78
2023/08/22 07:44:35;;;;;;;5.07;4.43;;;25.10;88.80;;;;;;4990284;28;20469;-78
2023/08/22 07:47:02;;;;;;;5.20;4.80;;;25.10;88.80;;;;;;4957463;28;21065;-77
2023/08/22 07:49:28;;;;;;;5.50;5.00;;;25.10;88.90;;;;;;4989969;28;20432;-78
2023/08/22 07:51:54;;;;;;;5.93;5.30;;;25.10;89.10;;;;;;4990261;28;20471;-77
2023/08/22 07:54:23;;;;;;;5.10;4.70;;;25.10;89.00;;;;;;4989700;28;20444;-77
2023/08/22 07:56:49;;;;;;;5.00;4.60;;;25.10;89.00;;;;;;4989402;28;20491;-78
2023/08/22 07:59:15;;;;;;;4.90;4.50;;;25.10;89.00;;;;;;4972970;28;20448;-78
2023/08/22 08:01:48;;;;;;;5.67;4.97;;;25.10;88.90;;;;;;4957837;28;20498;-78
2023/08/22 08:04:14;;;;;;;5.10;4.70;;;25.10;88.90;;;;;;4973006;28;20464;-78
2023/08/22 08:06:41;;;;;;;6.87;5.20;;;25.10;88.90;;;;;;5007106;28;20418;-78
2023/08/22 08:09:07;;;;;;;5.83;5.23;;;25.10;89.00;;;;;;4988707;28;20408;-78
2023/08/22 08:11:33;;;;;;;5.57;5.13;;;25.20;89.30;;;;;;4989543;28;20500;-78
2023/08/22 08:14:02;;;;;;;11.13;6.20;;;25.20;89.20;;;;;;4990335;28;20523;-78
2023/08/22 08:16:28;;;;;;;7.50;6.50;;;25.10;89.20;;;;;;4990192;28;20496;-78
2023/08/22 08:18:57;;;;;;;7.00;5.40;;;25.10;89.10;;;;;;5008044;28;20865;-79
2023/08/22 08:21:23;;;;;;;9.37;6.37;;;25.20;89.20;;;;;;4973351;28;20484;-78
2023/08/22 08:23:51;;;;;;;9.37;6.80;;;25.20;89.10;;;;;;4989426;28;20451;-78
2023/08/22 08:26:17;;;;;;;8.47;6.90;;;25.20;89.20;;;;;;4988334;28;20494;-77
2023/08/22 08:28:44;;;;;;;9.57;7.37;;;25.20;89.30;;;;;;5006633;28;20527;-78
2023/08/22 08:31:10;;;;;;;8.47;6.77;;;25.20;89.20;;;;;;5006516;28;20973;-79
2023/08/22 08:33:37;;;;;;;10.37;7.73;;;25.20;89.10;;;;;;4988477;28;20865;-77
2023/08/22 08:36:04;;;;;;;11.00;8.97;;;25.20;89.20;;;;;;4987033;28;20436;-78
2023/08/22 08:38:32;;;;;;;10.77;7.93;;;25.20;89.20;;;;;;4986027;28;20520;-77
2023/08/22 08:41:03;;;;;;;10.93;8.07;;;25.20;89.20;;;;;;4986955;28;20447;-76
2023/08/22 08:43:33;;;;;;;14.43;9.90;;;25.20;89.30;;;;;;4986275;28;21111;-76
2023/08/22 08:46:02;;;;;;;10.90;9.80;;;25.20;89.20;;;;;;4970340;28;20809;-76
2023/08/22 08:48:33;;;;;;;13.87;9.40;;;25.30;89.20;;;;;;4986760;28;20428;-76
2023/08/22 08:51:05;;;;;;;13.73;9.13;;;25.30;89.30;;;;;;4969916;28;20416;-77
2023/08/22 08:53:33;;;;;;;12.00;8.60;;;25.30;89.20;;;;;;4985881;28;20512;-77
2023/08/22 08:56:00;;;;;;;14.20;9.63;;;25.30;89.10;;;;;;4986450;28;20510;-76
2023/08/22 08:58:28;;;;;;;11.97;8.87;;;25.30;89.20;;;;;;4987077;28;20518;-77
2023/08/22 09:00:59;;;;;;;13.30;9.37;;;25.30;89.10;;;;;;4986895;28;20423;-78
2023/08/22 09:03:25;;;;;;;20.00;9.07;;;25.40;89.10;;;;;;5003939;28;20799;-77
2023/08/22 09:05:51;;;;;;;10.23;8.77;;;25.40;88.90;;;;;;4985941;28;20465;-77
2023/08/22 09:08:20;;;;;;;9.80;8.30;;;25.40;88.80;;;;;;4986340;28;20459;-77
2023/08/22 09:10:53;;;;;;;9.60;7.90;;;25.40;88.90;;;;;;4986459;28;20456;-77
2023/08/22 09:13:27;;;;;;;12.23;9.60;;;25.40;88.80;;;;;;4986162;28;20509;-77
2023/08/22 09:16:05;;;;;;;12.30;9.07;;;25.40;88.90;;;;;;4986741;28;21243;-77
2023/08/22 09:18:34;;;;;;;11.30;9.40;;;25.50;88.90;;;;;;4987083;28;20470;-76
2023/08/22 09:21:07;;;;;;;12.43;8.10;;;25.50;88.90;;;;;;4970832;28;20439;-77
2023/08/22 09:23:33;;;;;;;11.63;8.27;;;25.50;89.00;;;;;;4954397;28;20458;-77
2023/08/22 09:26:01;;;;;;;11.23;8.20;;;25.50;88.80;;;;;;4970266;28;20491;-76
2023/08/22 09:28:27;;;;;;;10.37;8.43;;;25.60;88.90;;;;;;4986648;28;20436;-77
2023/08/22 09:30:54;;;;;;;10.20;7.17;;;25.50;88.70;;;;;;4970555;28;21413;-77
2023/08/22 09:33:22;;;;;;;9.93;7.77;;;25.60;88.80;;;;;;5004259;28;20439;-77
2023/08/22 09:35:57;;;;;;;10.83;7.90;;;25.60;88.70;;;;;;4986699;28;21013;-77
2023/08/22 09:38:25;;;;;;;9.03;6.87;;;25.60;88.70;;;;;;5004221;28;20454;-77
2023/08/22 09:40:56;;;;;;;12.03;6.50;;;25.60;88.60;;;;;;4954711;28;20449;-76
2023/08/22 09:43:31;;;;;;;10.13;7.37;;;25.60;88.40;;;;;;4986260;28;20452;-77
2023/08/22 09:45:58;;;;;;;9.67;7.33;;;25.60;88.40;;;;;;5005334;28;20447;-77
2023/08/22 09:48:33;;;;;;;9.97;6.47;;;25.70;88.60;;;;;;4971850;28;20478;-77
2023/08/22 09:51:03;;;;;;;13.00;7.20;;;25.70;88.50;;;;;;4986727;28;20447;-76
2023/08/22 09:53:33;;;;;;;8.80;7.33;;;25.70;88.40;;;;;;4970109;28;20444;-77
2023/08/22 09:56:00;;;;;;;9.53;6.83;;;25.70;88.50;;;;;;4986270;28;20467;-79
2023/08/22 09:58:31;;;;;;;8.37;6.40;;;25.70;88.40;;;;;;4970340;28;20436;-77
2023/08/22 10:01:00;;;;;;;9.20;6.30;;;25.80;88.40;;;;;;4954780;28;20436;-76
2023/08/22 10:03:26;;;;;;;7.10;6.03;;;25.80;89.20;;;;;;4969376;28;20558;-76
2023/08/22 10:05:54;;;;;;;7.80;6.47;;;25.80;88.30;;;;;;4953006;28;20847;-76
2023/08/22 10:08:20;;;;;;;6.83;5.90;;;25.80;88.30;;;;;;4968845;28;20412;-77
2023/08/22 10:10:47;;;;;;;7.63;6.10;;;25.80;88.30;;;;;;4968819;28;20861;-77
2023/08/22 10:13:15;;;;;;;9.80;6.27;;;25.80;88.20;;;;;;4965397;28;20475;-77
2023/08/22 10:15:44;;;;;;;6.73;6.23;;;25.90;88.30;;;;;;4982724;28;20413;-77
2023/08/22 10:18:11;;;;;;;6.20;5.60;;;25.90;88.20;;;;;;4965024;28;21081;-77
2023/08/22 10:20:43;;;;;;;6.87;5.30;;;25.90;88.10;;;;;;4949433;28;20421;-77
2023/08/22 10:23:09;;;;;;;6.77;6.10;;;25.90;88.10;;;;;;4949380;28;20479;-77
2023/08/22 10:25:49;;;;;;;6.30;5.70;;;25.90;88.00;;;;;;4949105;28;21041;-76
2023/08/22 10:28:18;;;;;;;6.23;5.50;;;25.90;88.00;;;;;;4964932;28;20883;-77
2023/08/22 10:31:03;;;;;;;6.90;6.20;;;25.90;88.00;;;;;;4980887;28;20429;-77
2023/08/22 10:33:29;;;;;;;7.57;5.40;;;26.00;88.00;;;;;;4964939;28;21091;-77
2023/08/22 10:36:15;;;;;;;6.13;5.57;;;26.00;88.00;;;;;;4965431;28;20473;-76
2023/08/22 10:39:08;;;;;;;5.90;5.40;;;26.00;87.90;;;;;;4965044;28;20453;-78
2023/08/22 10:41:55;;;;;;;6.57;5.13;;;26.00;88.00;;;;;;4962395;28;20512;-77
2023/08/22 10:44:26;;;;;;;5.87;5.30;;;26.00;87.90;;;;;;4964582;28;20440;-77
2023/08/22 10:47:00;;;;;;;8.00;6.13;;;26.00;87.80;;;;;;4952700;28;20455;-76
2023/08/22 10:49:34;;;;;;;6.57;5.83;;;26.00;87.90;;;;;;4984746;28;20527;-78
2023/08/22 10:52:10;;;;;;;5.80;5.27;;;26.00;87.70;;;;;;5002619;28;20435;-77
2023/08/22 10:55:03;;;;;;;6.17;5.33;;;26.10;87.80;;;;;;4984892;28;20452;-77
2023/08/22 10:57:32;;;;;;;5.90;5.27;;;26.10;87.70;;;;;;4979507;28;20594;-77
2023/08/22 10:59:58;;;;;;;8.00;5.27;;;26.10;87.60;;;;;;4985250;28;20525;-78
2023/08/22 11:02:28;;;;;;;5.90;5.30;;;26.10;87.50;;;;;;4985334;28;21114;-77
2023/08/22 11:05:01;;;;;;;5.77;5.07;;;26.10;87.50;;;;;;5002832;28;20864;-79
2023/08/22 11:07:28;;;;;;;6.00;5.50;;;26.10;87.40;;;;;;5002676;28;20452;-77
2023/08/22 11:09:54;;;;;;;5.33;4.93;;;26.10;87.50;;;;;;4985571;28;20414;-76
2023/08/22 11:12:24;;;;;;;6.37;5.37;;;26.10;87.40;;;;;;4968545;28;20428;-77
2023/08/22 11:14:52;;;;;;;5.13;4.53;;;26.20;87.50;;;;;;5003165;28;20530;-76
2023/08/22 11:17:21;;;;;;;5.87;5.27;;;26.20;87.50;;;;;;4988837;28;20451;-77
2023/08/22 11:19:51;;;;;;;6.23;5.40;;;26.20;87.50;;;;;;4989415;28;20535;-77
2023/08/22 11:22:19;;;;;;;4.93;4.43;;;26.20;87.30;;;;;;4989330;28;20780;-76
2023/08/22 11:24:50;;;;;;;5.90;4.63;;;26.20;87.20;;;;;;4971473;28;20474;-77
2023/08/22 11:27:19;;;;;;;6.10;4.70;;;26.20;86.90;;;;;;4989785;28;21204;-77
2023/08/22 11:29:46;;;;;;;4.63;4.23;;;26.30;86.90;;;;;;5007465;28;20441;-77
2023/08/22 11:32:23;;;;;;;5.40;4.40;;;26.30;86.90;;;;;;4973186;28;20412;-77
2023/08/22 11:34:52;;;;;;;5.20;4.30;;;26.30;86.80;;;;;;5005865;28;20447;-77
2023/08/22 11:37:19;;;;;;;4.33;4.00;;;26.30;86.70;;;;;;4988180;28;20486;-77
2023/08/22 11:39:49;;;;;;;5.13;4.47;;;26.30;86.60;;;;;;4988343;28;21067;-76
2023/08/22 11:42:17;;;;;;;6.70;4.50;;;26.40;86.80;;;;;;5007057;28;20448;-77
2023/08/22 11:44:52;;;;;;;5.20;4.80;;;26.40;86.80;;;;;;4988272;28;20495;-77
2023/08/22 11:47:20;;;;;;;4.77;4.13;;;26.40;86.80;;;;;;4991423;28;21047;-77
2023/08/22 11:49:50;;;;;;;4.63;4.23;;;26.40;86.70;;;;;;5005595;28;20412;-77
2023/08/22 11:52:27;;;;;;;4.93;4.43;;;26.40;86.60;;;;;;5003979;28;20455;-77
2023/08/22 11:55:05;;;;;;;4.63;4.23;;;26.40;86.60;;;;;;4987191;28;20965;-77
2023/08/22 11:57:43;;;;;;;5.70;4.80;;;26.50;86.70;;;;;;5003336;28;20415;-77
2023/08/22 12:00:14;;;;;;;4.10;3.77;;;26.50;86.40;;;;;;4987296;28;20431;-78
2023/08/22 12:02:49;;;;;;;4.30;4.00;;;26.50;86.10;;;;;;5003543;28;20448;-77
2023/08/22 12:05:40;;;;;;;5.10;4.60;;;26.50;85.80;;;;;;5005085;28;20483;-77
2023/08/22 12:08:07;;;;;;;4.00;3.70;;;26.60;85.90;;;;;;5052271;23;20490;-75
2023/08/22 12:10:39;;;;;;;4.23;3.67;;;26.60;85.60;;;;;;5024673;28;20817;-75
2023/08/22 12:13:14;;;;;;;4.73;4.07;;;26.60;85.60;;;;;;5006883;28;20427;-74
2023/08/22 12:15:41;;;;;;;4.87;3.90;;;26.60;85.60;;;;;;4991329;28;20506;-75
2023/08/22 12:18:11;;;;;;;4.97;4.50;;;26.60;85.20;;;;;;5026067;28;20435;-75
2023/08/22 12:20:39;;;;;;;4.40;4.10;;;26.70;85.50;;;;;;5009006;28;20483;-76
2023/08/22 12:23:07;;;;;;;4.43;4.03;;;26.70;85.30;;;;;;5009170;28;20469;-74
2023/08/22 12:25:34;;;;;;;4.83;4.43;;;26.70;85.30;;;;;;5009595;28;20439;-74
2023/08/22 12:28:04;;;;;;;4.90;3.73;;;26.70;85.50;;;;;;5007418;28;20935;-76
2023/08/22 12:30:33;;;;;;;4.00;3.70;;;26.70;85.40;;;;;;5019425;28;21172;-74
2023/08/22 12:33:00;;;;;;;4.03;3.63;;;26.70;85.20;;;;;;5008365;28;20415;-75
2023/08/22 12:35:34;;;;;;;4.30;3.90;;;26.80;85.30;;;;;;4992087;28;20431;-74
2023/08/22 12:38:03;;;;;;;4.03;3.70;;;26.80;85.20;;;;;;4992519;28;20932;-75
2023/08/22 12:40:29;;;;;;;4.87;4.07;;;26.80;85.30;;;;;;5008718;28;20431;-75
2023/08/22 12:43:01;;;;;;;4.10;3.80;;;26.80;85.30;;;;;;5008613;28;20983;-74
2023/08/22 12:45:27;;;;;;;4.93;4.43;;;26.80;85.40;;;;;;5026330;28;20454;-75
2023/08/22 12:47:56;;;;;;;3.70;3.47;;;26.90;85.20;;;;;;5027032;28;20422;-74
2023/08/22 12:50:24;;;;;;;4.20;3.90;;;26.90;85.10;;;;;;5026985;28;21056;-75
2023/08/22 12:52:52;;;;;;;4.10;3.80;;;26.90;85.10;;;;;;5009147;28;20947;-75
2023/08/22 12:55:20;;;;;;;4.40;4.00;;;26.90;85.10;;;;;;5026533;28;20629;-74